sensor_id;sensor_type;location;lat;lon;timestamp;P1;durP1;ratioP1;P2;durP2;ratioP2
68126;SDS011;54931;52.098;21.006;2022-08-25T00:02:10;11.10;;;2.60;;
68126;SDS011;54931;52.098;21.006;2022-08-25T00:04:37;10.60;;;2.80;;
68126;SDS011;54931;52.098;21.006;2022-08-25T00:07:05;10.10;;;2.80;;
68126;SDS011;54931;52.098;21.006;2022-08-25T00:09:33;10.40;;;2.80;;
68126;SDS011;54931;52.098;21.006;2022-08-25T00:12:03;10.00;;;2.70;;
68126;SDS011;54931;52.098;21.006;2022-08-25T00:14:35;10.90;;;2.90;;
68126;SDS011;54931;52.098;21.006;2022-08-25T00:17:04;16.80;;;2.50;;
68126;SDS011;54931;52.098;21.006;2022-08-25T00:19:34;9.00;;;2.70;;
68126;SDS011;54931;52.098;21.006;2022-08-25T00:22:03;7.80;;;2.60;;
68126;SDS011;54931;52.098;21.006;2022-08-25T00:24:31;12.40;;;2.60;;
68126;SDS011;54931;52.098;21.006;2022-08-25T00:26:58;7.60;;;2.80;;
68126;SDS011;54931;52.098;21.006;2022-08-25T00:29:28;13.90;;;3.30;;
68126;SDS011;54931;52.098;21.006;2022-08-25T00:31:57;9.40;;;2.60;;
68126;SDS011;54931;52.098;21.006;2022-08-25T00:34:29;10.90;;;2.90;;
68126;SDS011;54931;52.098;21.006;2022-08-25T00:37:01;13.60;;;3.40;;
68126;SDS011;54931;52.098;21.006;2022-08-25T00:39:29;10.70;;;2.80;;
68126;SDS011;54931;52.098;21.006;2022-08-25T00:41:56;9.00;;;2.60;;
68126;SDS011;54931;52.098;21.006;2022-08-25T00:44:26;12.60;;;2.80;;
68126;SDS011;54931;52.098;21.006;2022-08-25T00:46:57;11.70;;;3.10;;
68126;SDS011;54931;52.098;21.006;2022-08-25T00:49:36;12.00;;;3.20;;
68126;SDS011;54931;52.098;21.006;2022-08-25T00:52:10;10.40;;;2.90;;
68126;SDS011;54931;52.098;21.006;2022-08-25T00:57:22;9.40;;;2.90;;
68126;SDS011;54931;52.098;21.006;2022-08-25T00:59:54;7.50;;;3.00;;
68126;SDS011;54931;52.098;21.006;2022-08-25T01:02:23;9.70;;;2.80;;
68126;SDS011;54931;52.098;21.006;2022-08-25T01:04:50;11.00;;;3.20;;
68126;SDS011;54931;52.098;21.006;2022-08-25T01:07:19;14.00;;;3.20;;
68126;SDS011;54931;52.098;21.006;2022-08-25T01:09:49;9.50;;;3.10;;
68126;SDS011;54931;52.098;21.006;2022-08-25T01:12:25;9.20;;;3.00;;
68126;SDS011;54931;52.098;21.006;2022-08-25T01:14:52;12.80;;;4.10;;
68126;SDS011;54931;52.098;21.006;2022-08-25T01:17:22;16.70;;;3.70;;
68126;SDS011;54931;52.098;21.006;2022-08-25T01:19:53;11.50;;;3.30;;
68126;SDS011;54931;52.098;21.006;2022-08-25T01:22:21;11.10;;;3.30;;
68126;SDS011;54931;52.098;21.006;2022-08-25T01:25:03;12.20;;;3.50;;
68126;SDS011;54931;52.098;21.006;2022-08-25T01:27:39;16.50;;;4.30;;
68126;SDS011;54931;52.098;21.006;2022-08-25T01:30:07;8.50;;;3.60;;
68126;SDS011;54931;52.098;21.006;2022-08-25T01:32:35;15.70;;;3.80;;
68126;SDS011;54931;52.098;21.006;2022-08-25T01:35:02;9.90;;;3.50;;
68126;SDS011;54931;52.098;21.006;2022-08-25T01:37:32;15.70;;;3.80;;
68126;SDS011;54931;52.098;21.006;2022-08-25T01:40:00;11.40;;;3.70;;
68126;SDS011;54931;52.098;21.006;2022-08-25T01:42:46;11.80;;;3.60;;
68126;SDS011;54931;52.098;21.006;2022-08-25T01:45:23;11.20;;;3.70;;
68126;SDS011;54931;52.098;21.006;2022-08-25T01:47:51;14.10;;;3.90;;
68126;SDS011;54931;52.098;21.006;2022-08-25T01:50:18;11.20;;;4.00;;
68126;SDS011;54931;52.098;21.006;2022-08-25T01:53:03;8.20;;;3.30;;
68126;SDS011;54931;52.098;21.006;2022-08-25T01:55:42;14.70;;;4.00;;
68126;SDS011;54931;52.098;21.006;2022-08-25T01:58:29;16.50;;;4.80;;
68126;SDS011;54931;52.098;21.006;2022-08-25T02:01:02;15.60;;;5.00;;
68126;SDS011;54931;52.098;21.006;2022-08-25T02:03:36;11.90;;;4.40;;
68126;SDS011;54931;52.098;21.006;2022-08-25T02:06:06;13.10;;;4.40;;
68126;SDS011;54931;52.098;21.006;2022-08-25T02:08:34;14.30;;;4.60;;
68126;SDS011;54931;52.098;21.006;2022-08-25T02:11:02;15.70;;;4.70;;
68126;SDS011;54931;52.098;21.006;2022-08-25T02:13:29;12.50;;;4.20;;
68126;SDS011;54931;52.098;21.006;2022-08-25T02:15:58;12.10;;;3.90;;
68126;SDS011;54931;52.098;21.006;2022-08-25T02:18:28;15.00;;;4.00;;
68126;SDS011;54931;52.098;21.006;2022-08-25T02:20:55;13.30;;;4.10;;
68126;SDS011;54931;52.098;21.006;2022-08-25T02:23:22;12.70;;;3.60;;
68126;SDS011;54931;52.098;21.006;2022-08-25T02:25:50;13.30;;;4.00;;
68126;SDS011;54931;52.098;21.006;2022-08-25T02:28:17;12.10;;;4.50;;
68126;SDS011;54931;52.098;21.006;2022-08-25T02:30:44;14.90;;;4.70;;
68126;SDS011;54931;52.098;21.006;2022-08-25T02:33:13;13.00;;;4.60;;
68126;SDS011;54931;52.098;21.006;2022-08-25T02:35:40;14.20;;;4.60;;
68126;SDS011;54931;52.098;21.006;2022-08-25T02:38:08;19.70;;;5.00;;
68126;SDS011;54931;52.098;21.006;2022-08-25T02:40:35;18.20;;;4.90;;
68126;SDS011;54931;52.098;21.006;2022-08-25T02:43:02;16.20;;;4.90;;
68126;SDS011;54931;52.098;21.006;2022-08-25T02:45:31;14.90;;;4.30;;
68126;SDS011;54931;52.098;21.006;2022-08-25T02:47:58;11.70;;;4.40;;
68126;SDS011;54931;52.098;21.006;2022-08-25T02:50:26;17.60;;;5.00;;
68126;SDS011;54931;52.098;21.006;2022-08-25T02:52:53;14.10;;;4.80;;
68126;SDS011;54931;52.098;21.006;2022-08-25T02:55:20;17.00;;;5.00;;
68126;SDS011;54931;52.098;21.006;2022-08-25T02:57:49;12.10;;;4.80;;
68126;SDS011;54931;52.098;21.006;2022-08-25T03:00:16;19.70;;;5.00;;
68126;SDS011;54931;52.098;21.006;2022-08-25T03:02:44;15.00;;;4.50;;
68126;SDS011;54931;52.098;21.006;2022-08-25T03:05:14;14.50;;;4.90;;
68126;SDS011;54931;52.098;21.006;2022-08-25T03:07:41;13.50;;;4.70;;
68126;SDS011;54931;52.098;21.006;2022-08-25T03:10:13;17.20;;;4.30;;
68126;SDS011;54931;52.098;21.006;2022-08-25T03:12:42;15.80;;;5.00;;
68126;SDS011;54931;52.098;21.006;2022-08-25T03:15:13;16.70;;;4.60;;
68126;SDS011;54931;52.098;21.006;2022-08-25T03:17:43;13.00;;;4.80;;
68126;SDS011;54931;52.098;21.006;2022-08-25T03:20:12;17.00;;;5.40;;
68126;SDS011;54931;52.098;21.006;2022-08-25T03:22:39;21.10;;;4.60;;
68126;SDS011;54931;52.098;21.006;2022-08-25T03:25:09;20.50;;;5.20;;
68126;SDS011;54931;52.098;21.006;2022-08-25T03:27:55;14.00;;;4.70;;
68126;SDS011;54931;52.098;21.006;2022-08-25T03:30:25;14.60;;;5.40;;
68126;SDS011;54931;52.098;21.006;2022-08-25T03:32:53;16.60;;;4.80;;
68126;SDS011;54931;52.098;21.006;2022-08-25T03:35:21;19.40;;;5.20;;
68126;SDS011;54931;52.098;21.006;2022-08-25T03:37:49;15.50;;;4.70;;
68126;SDS011;54931;52.098;21.006;2022-08-25T03:40:16;19.60;;;5.00;;
68126;SDS011;54931;52.098;21.006;2022-08-25T03:42:44;13.70;;;5.10;;
68126;SDS011;54931;52.098;21.006;2022-08-25T03:45:14;18.80;;;5.20;;
68126;SDS011;54931;52.098;21.006;2022-08-25T03:47:48;19.30;;;5.90;;
68126;SDS011;54931;52.098;21.006;2022-08-25T03:50:18;15.80;;;5.00;;
68126;SDS011;54931;52.098;21.006;2022-08-25T03:55:58;14.70;;;5.00;;
68126;SDS011;54931;52.098;21.006;2022-08-25T03:58:25;11.90;;;4.70;;
68126;SDS011;54931;52.098;21.006;2022-08-25T04:00:53;17.40;;;5.30;;
68126;SDS011;54931;52.098;21.006;2022-08-25T04:03:22;19.00;;;4.70;;
68126;SDS011;54931;52.098;21.006;2022-08-25T04:05:49;14.10;;;4.90;;
68126;SDS011;54931;52.098;21.006;2022-08-25T04:08:16;17.60;;;4.90;;
68126;SDS011;54931;52.098;21.006;2022-08-25T04:10:45;19.80;;;5.20;;
68126;SDS011;54931;52.098;21.006;2022-08-25T04:13:12;18.70;;;5.60;;
68126;SDS011;54931;52.098;21.006;2022-08-25T04:15:42;21.20;;;5.40;;
68126;SDS011;54931;52.098;21.006;2022-08-25T04:18:10;17.20;;;5.60;;
68126;SDS011;54931;52.098;21.006;2022-08-25T04:20:39;19.90;;;5.90;;
68126;SDS011;54931;52.098;21.006;2022-08-25T04:23:09;16.00;;;5.80;;
68126;SDS011;54931;52.098;21.006;2022-08-25T04:25:39;22.00;;;5.80;;
68126;SDS011;54931;52.098;21.006;2022-08-25T04:28:10;19.20;;;6.10;;
68126;SDS011;54931;52.098;21.006;2022-08-25T04:30:41;23.00;;;6.10;;
68126;SDS011;54931;52.098;21.006;2022-08-25T04:33:09;15.40;;;5.50;;
68126;SDS011;54931;52.098;21.006;2022-08-25T04:35:36;17.60;;;6.00;;
68126;SDS011;54931;52.098;21.006;2022-08-25T04:38:05;31.30;;;6.30;;
68126;SDS011;54931;52.098;21.006;2022-08-25T04:40:32;18.60;;;5.80;;
68126;SDS011;54931;52.098;21.006;2022-08-25T04:43:00;22.00;;;6.30;;
68126;SDS011;54931;52.098;21.006;2022-08-25T04:45:27;23.60;;;6.20;;
68126;SDS011;54931;52.098;21.006;2022-08-25T04:47:55;21.40;;;6.40;;
68126;SDS011;54931;52.098;21.006;2022-08-25T04:50:26;17.70;;;5.50;;
68126;SDS011;54931;52.098;21.006;2022-08-25T04:52:53;22.90;;;6.50;;
68126;SDS011;54931;52.098;21.006;2022-08-25T04:55:20;27.80;;;6.30;;
68126;SDS011;54931;52.098;21.006;2022-08-25T04:57:48;20.90;;;6.50;;
68126;SDS011;54931;52.098;21.006;2022-08-25T05:00:15;22.90;;;5.80;;
68126;SDS011;54931;52.098;21.006;2022-08-25T05:02:43;24.30;;;6.20;;
68126;SDS011;54931;52.098;21.006;2022-08-25T05:05:10;24.30;;;6.40;;
68126;SDS011;54931;52.098;21.006;2022-08-25T05:07:38;22.30;;;5.90;;
68126;SDS011;54931;52.098;21.006;2022-08-25T05:10:06;29.00;;;6.30;;
68126;SDS011;54931;52.098;21.006;2022-08-25T05:12:33;20.70;;;6.50;;
68126;SDS011;54931;52.098;21.006;2022-08-25T05:15:01;24.70;;;6.50;;
68126;SDS011;54931;52.098;21.006;2022-08-25T05:17:48;27.70;;;6.80;;
68126;SDS011;54931;52.098;21.006;2022-08-25T05:20:15;25.10;;;6.70;;
68126;SDS011;54931;52.098;21.006;2022-08-25T05:22:44;22.20;;;6.10;;
68126;SDS011;54931;52.098;21.006;2022-08-25T05:25:12;24.40;;;6.90;;
68126;SDS011;54931;52.098;21.006;2022-08-25T05:27:41;24.10;;;6.60;;
68126;SDS011;54931;52.098;21.006;2022-08-25T05:30:10;25.10;;;7.00;;
68126;SDS011;54931;52.098;21.006;2022-08-25T05:32:38;28.50;;;6.10;;
68126;SDS011;54931;52.098;21.006;2022-08-25T05:35:06;23.90;;;6.50;;
68126;SDS011;54931;52.098;21.006;2022-08-25T05:37:34;24.00;;;6.80;;
68126;SDS011;54931;52.098;21.006;2022-08-25T05:40:06;25.40;;;7.20;;
68126;SDS011;54931;52.098;21.006;2022-08-25T05:42:34;30.20;;;6.50;;
68126;SDS011;54931;52.098;21.006;2022-08-25T05:45:05;17.60;;;7.10;;
68126;SDS011;54931;52.098;21.006;2022-08-25T05:47:35;21.70;;;6.50;;
68126;SDS011;54931;52.098;21.006;2022-08-25T05:50:02;19.90;;;6.60;;
68126;SDS011;54931;52.098;21.006;2022-08-25T05:52:30;27.10;;;6.70;;
68126;SDS011;54931;52.098;21.006;2022-08-25T05:54:58;23.90;;;6.30;;
68126;SDS011;54931;52.098;21.006;2022-08-25T05:57:26;23.10;;;6.80;;
68126;SDS011;54931;52.098;21.006;2022-08-25T05:59:53;25.10;;;6.90;;
68126;SDS011;54931;52.098;21.006;2022-08-25T06:02:20;30.50;;;7.10;;
68126;SDS011;54931;52.098;21.006;2022-08-25T06:05:07;22.70;;;6.80;;
68126;SDS011;54931;52.098;21.006;2022-08-25T06:07:40;29.10;;;7.40;;
68126;SDS011;54931;52.098;21.006;2022-08-25T06:10:08;30.10;;;7.60;;
68126;SDS011;54931;52.098;21.006;2022-08-25T06:12:41;30.30;;;6.80;;
68126;SDS011;54931;52.098;21.006;2022-08-25T06:15:13;24.30;;;6.20;;
68126;SDS011;54931;52.098;21.006;2022-08-25T06:17:41;24.20;;;6.80;;
68126;SDS011;54931;52.098;21.006;2022-08-25T06:20:12;22.90;;;6.70;;
68126;SDS011;54931;52.098;21.006;2022-08-25T06:22:44;19.80;;;6.80;;
68126;SDS011;54931;52.098;21.006;2022-08-25T06:25:14;22.70;;;6.60;;
68126;SDS011;54931;52.098;21.006;2022-08-25T06:27:44;29.90;;;7.00;;
68126;SDS011;54931;52.098;21.006;2022-08-25T06:30:15;22.60;;;6.70;;
68126;SDS011;54931;52.098;21.006;2022-08-25T06:32:46;21.80;;;7.20;;
68126;SDS011;54931;52.098;21.006;2022-08-25T06:35:16;26.30;;;7.70;;
68126;SDS011;54931;52.098;21.006;2022-08-25T06:37:45;25.00;;;6.80;;
68126;SDS011;54931;52.098;21.006;2022-08-25T06:40:14;21.20;;;6.80;;
68126;SDS011;54931;52.098;21.006;2022-08-25T06:42:45;23.50;;;7.10;;
68126;SDS011;54931;52.098;21.006;2022-08-25T06:45:14;24.00;;;7.50;;
68126;SDS011;54931;52.098;21.006;2022-08-25T06:47:42;22.40;;;6.30;;
68126;SDS011;54931;52.098;21.006;2022-08-25T06:50:09;20.50;;;6.70;;
68126;SDS011;54931;52.098;21.006;2022-08-25T06:52:37;23.30;;;7.40;;
68126;SDS011;54931;52.098;21.006;2022-08-25T06:55:04;20.60;;;6.90;;
68126;SDS011;54931;52.098;21.006;2022-08-25T06:57:32;26.10;;;6.50;;
68126;SDS011;54931;52.098;21.006;2022-08-25T07:00:04;26.60;;;6.90;;
68126;SDS011;54931;52.098;21.006;2022-08-25T07:02:34;27.80;;;6.40;;
68126;SDS011;54931;52.098;21.006;2022-08-25T07:05:05;17.30;;;6.40;;
68126;SDS011;54931;52.098;21.006;2022-08-25T07:07:32;23.00;;;6.80;;
68126;SDS011;54931;52.098;21.006;2022-08-25T07:10:00;26.80;;;6.40;;
68126;SDS011;54931;52.098;21.006;2022-08-25T07:12:28;17.20;;;6.50;;
68126;SDS011;54931;52.098;21.006;2022-08-25T07:14:55;22.90;;;6.50;;
68126;SDS011;54931;52.098;21.006;2022-08-25T07:17:22;20.70;;;6.00;;
68126;SDS011;54931;52.098;21.006;2022-08-25T07:19:50;25.80;;;7.00;;
68126;SDS011;54931;52.098;21.006;2022-08-25T07:22:17;20.20;;;5.80;;
68126;SDS011;54931;52.098;21.006;2022-08-25T07:24:44;23.00;;;6.10;;
68126;SDS011;54931;52.098;21.006;2022-08-25T07:27:12;21.50;;;6.70;;
68126;SDS011;54931;52.098;21.006;2022-08-25T07:29:39;26.00;;;6.20;;
68126;SDS011;54931;52.098;21.006;2022-08-25T07:32:07;22.60;;;7.20;;
68126;SDS011;54931;52.098;21.006;2022-08-25T07:34:34;21.50;;;6.40;;
68126;SDS011;54931;52.098;21.006;2022-08-25T07:39:55;27.40;;;5.90;;
68126;SDS011;54931;52.098;21.006;2022-08-25T07:42:22;22.60;;;5.90;;
68126;SDS011;54931;52.098;21.006;2022-08-25T07:44:50;22.60;;;5.80;;
68126;SDS011;54931;52.098;21.006;2022-08-25T07:47:18;21.70;;;6.10;;
68126;SDS011;54931;52.098;21.006;2022-08-25T07:49:45;17.60;;;5.70;;
68126;SDS011;54931;52.098;21.006;2022-08-25T07:52:12;20.60;;;5.50;;
68126;SDS011;54931;52.098;21.006;2022-08-25T07:54:40;37.70;;;5.80;;
68126;SDS011;54931;52.098;21.006;2022-08-25T07:57:08;25.70;;;6.20;;
68126;SDS011;54931;52.098;21.006;2022-08-25T07:59:42;16.00;;;5.80;;
68126;SDS011;54931;52.098;21.006;2022-08-25T08:02:11;19.40;;;5.90;;
68126;SDS011;54931;52.098;21.006;2022-08-25T08:04:39;22.20;;;5.90;;
68126;SDS011;54931;52.098;21.006;2022-08-25T08:07:08;17.20;;;5.40;;
68126;SDS011;54931;52.098;21.006;2022-08-25T08:09:36;18.10;;;6.00;;
68126;SDS011;54931;52.098;21.006;2022-08-25T08:12:03;21.90;;;5.50;;
68126;SDS011;54931;52.098;21.006;2022-08-25T08:14:31;17.90;;;6.10;;
68126;SDS011;54931;52.098;21.006;2022-08-25T08:16:58;23.10;;;5.90;;
68126;SDS011;54931;52.098;21.006;2022-08-25T08:19:26;23.40;;;6.60;;
68126;SDS011;54931;52.098;21.006;2022-08-25T08:21:53;21.80;;;6.40;;
68126;SDS011;54931;52.098;21.006;2022-08-25T08:24:20;21.40;;;5.90;;
68126;SDS011;54931;52.098;21.006;2022-08-25T08:26:47;20.40;;;6.80;;
68126;SDS011;54931;52.098;21.006;2022-08-25T08:29:15;20.90;;;6.20;;
68126;SDS011;54931;52.098;21.006;2022-08-25T08:31:42;20.30;;;5.80;;
68126;SDS011;54931;52.098;21.006;2022-08-25T08:34:09;21.30;;;5.90;;
68126;SDS011;54931;52.098;21.006;2022-08-25T08:36:37;21.00;;;6.20;;
68126;SDS011;54931;52.098;21.006;2022-08-25T08:39:05;16.80;;;5.70;;
68126;SDS011;54931;52.098;21.006;2022-08-25T08:45:15;18.90;;;6.20;;
68126;SDS011;54931;52.098;21.006;2022-08-25T08:48:08;23.10;;;5.90;;
68126;SDS011;54931;52.098;21.006;2022-08-25T08:53:50;18.60;;;5.40;;
68126;SDS011;54931;52.098;21.006;2022-08-25T08:56:37;18.70;;;5.40;;
68126;SDS011;54931;52.098;21.006;2022-08-25T08:59:22;11.60;;;4.50;;
68126;SDS011;54931;52.098;21.006;2022-08-25T09:01:58;16.40;;;5.60;;
68126;SDS011;54931;52.098;21.006;2022-08-25T09:04:51;20.30;;;5.60;;
68126;SDS011;54931;52.098;21.006;2022-08-25T09:07:32;17.70;;;5.20;;
68126;SDS011;54931;52.098;21.006;2022-08-25T09:10:05;19.70;;;5.80;;
68126;SDS011;54931;52.098;21.006;2022-08-25T09:12:45;13.40;;;5.30;;
68126;SDS011;54931;52.098;21.006;2022-08-25T09:19:08;16.00;;;5.50;;
68126;SDS011;54931;52.098;21.006;2022-08-25T09:24:55;16.90;;;5.60;;
68126;SDS011;54931;52.098;21.006;2022-08-25T09:31:02;18.20;;;5.40;;
68126;SDS011;54931;52.098;21.006;2022-08-25T09:33:47;16.30;;;5.80;;
68126;SDS011;54931;52.098;21.006;2022-08-25T09:36:15;21.30;;;6.00;;
68126;SDS011;54931;52.098;21.006;2022-08-25T09:38:43;16.50;;;5.50;;
68126;SDS011;54931;52.098;21.006;2022-08-25T09:41:14;15.80;;;5.30;;
68126;SDS011;54931;52.098;21.006;2022-08-25T09:43:52;15.50;;;5.20;;
68126;SDS011;54931;52.098;21.006;2022-08-25T09:46:28;19.20;;;5.20;;
68126;SDS011;54931;52.098;21.006;2022-08-25T09:48:57;19.30;;;5.10;;
68126;SDS011;54931;52.098;21.006;2022-08-25T09:51:38;14.50;;;5.40;;
68126;SDS011;54931;52.098;21.006;2022-08-25T09:56:55;10.20;;;4.60;;
68126;SDS011;54931;52.098;21.006;2022-08-25T09:59:31;14.50;;;4.10;;
68126;SDS011;54931;52.098;21.006;2022-08-25T10:02:19;12.60;;;3.80;;
68126;SDS011;54931;52.098;21.006;2022-08-25T10:04:54;10.50;;;4.30;;
68126;SDS011;54931;52.098;21.006;2022-08-25T10:10:03;7.90;;;3.80;;
68126;SDS011;54931;52.098;21.006;2022-08-25T10:12:50;12.10;;;3.90;;
68126;SDS011;54931;52.098;21.006;2022-08-25T10:15:28;13.80;;;3.60;;
68126;SDS011;54931;52.098;21.006;2022-08-25T10:20:41;8.30;;;3.60;;
68126;SDS011;54931;52.098;21.006;2022-08-25T10:23:12;10.90;;;3.90;;
68126;SDS011;54931;52.098;21.006;2022-08-25T10:25:45;12.30;;;4.60;;
68126;SDS011;54931;52.098;21.006;2022-08-25T10:28:33;6.50;;;3.20;;
68126;SDS011;54931;52.098;21.006;2022-08-25T10:34:33;16.00;;;4.20;;
68126;SDS011;54931;52.098;21.006;2022-08-25T10:40:33;10.10;;;3.50;;
68126;SDS011;54931;52.098;21.006;2022-08-25T10:49:14;9.50;;;3.20;;
68126;SDS011;54931;52.098;21.006;2022-08-25T10:52:04;11.10;;;3.00;;
68126;SDS011;54931;52.098;21.006;2022-08-25T10:57:54;14.40;;;3.00;;
68126;SDS011;54931;52.098;21.006;2022-08-25T11:00:37;7.60;;;2.90;;
68126;SDS011;54931;52.098;21.006;2022-08-25T11:03:28;8.00;;;2.60;;
68126;SDS011;54931;52.098;21.006;2022-08-25T11:06:21;10.30;;;2.60;;
68126;SDS011;54931;52.098;21.006;2022-08-25T11:09:09;9.00;;;3.20;;
68126;SDS011;54931;52.098;21.006;2022-08-25T11:11:52;11.00;;;2.60;;
68126;SDS011;54931;52.098;21.006;2022-08-25T11:14:44;6.70;;;2.90;;
68126;SDS011;54931;52.098;21.006;2022-08-25T11:17:33;12.10;;;2.80;;
68126;SDS011;54931;52.098;21.006;2022-08-25T11:20:07;8.30;;;2.60;;
68126;SDS011;54931;52.098;21.006;2022-08-25T11:22:43;7.70;;;2.30;;
68126;SDS011;54931;52.098;21.006;2022-08-25T11:25:30;7.60;;;3.00;;
68126;SDS011;54931;52.098;21.006;2022-08-25T11:28:11;13.20;;;3.00;;
68126;SDS011;54931;52.098;21.006;2022-08-25T11:30:41;9.30;;;2.80;;
68126;SDS011;54931;52.098;21.006;2022-08-25T11:33:15;9.70;;;2.90;;
68126;SDS011;54931;52.098;21.006;2022-08-25T11:35:52;9.30;;;3.00;;
68126;SDS011;54931;52.098;21.006;2022-08-25T11:44:11;9.70;;;2.80;;
68126;SDS011;54931;52.098;21.006;2022-08-25T11:46:55;11.70;;;3.20;;
68126;SDS011;54931;52.098;21.006;2022-08-25T11:50:03;4.70;;;2.50;;
68126;SDS011;54931;52.098;21.006;2022-08-25T11:52:58;11.70;;;3.30;;
68126;SDS011;54931;52.098;21.006;2022-08-25T11:55:54;7.10;;;3.00;;
68126;SDS011;54931;52.098;21.006;2022-08-25T11:58:49;10.30;;;3.20;;
68126;SDS011;54931;52.098;21.006;2022-08-25T12:04:35;8.30;;;3.10;;
68126;SDS011;54931;52.098;21.006;2022-08-25T12:10:08;11.50;;;3.10;;
68126;SDS011;54931;52.098;21.006;2022-08-25T12:18:36;8.30;;;2.80;;
68126;SDS011;54931;52.098;21.006;2022-08-25T12:21:10;8.70;;;3.10;;
68126;SDS011;54931;52.098;21.006;2022-08-25T12:23:41;7.00;;;2.90;;
68126;SDS011;54931;52.098;21.006;2022-08-25T12:29:29;7.70;;;3.30;;
68126;SDS011;54931;52.098;21.006;2022-08-25T12:32:40;7.00;;;3.10;;
68126;SDS011;54931;52.098;21.006;2022-08-25T12:38:10;9.60;;;3.30;;
68126;SDS011;54931;52.098;21.006;2022-08-25T12:43:12;13.40;;;3.50;;
68126;SDS011;54931;52.098;21.006;2022-08-25T12:46:30;8.20;;;3.00;;
68126;SDS011;54931;52.098;21.006;2022-08-25T12:48:59;12.10;;;3.10;;
68126;SDS011;54931;52.098;21.006;2022-08-25T12:54:51;7.90;;;3.10;;
68126;SDS011;54931;52.098;21.006;2022-08-25T13:03:14;8.50;;;3.00;;
68126;SDS011;54931;52.098;21.006;2022-08-25T13:11:59;5.40;;;2.80;;
68126;SDS011;54931;52.098;21.006;2022-08-25T13:14:44;8.60;;;3.40;;
68126;SDS011;54931;52.098;21.006;2022-08-25T13:17:29;7.10;;;2.90;;
68126;SDS011;54931;52.098;21.006;2022-08-25T13:20:15;6.50;;;2.90;;
68126;SDS011;54931;52.098;21.006;2022-08-25T13:22:48;11.60;;;3.10;;
68126;SDS011;54931;52.098;21.006;2022-08-25T13:25:22;8.20;;;3.10;;
68126;SDS011;54931;52.098;21.006;2022-08-25T13:27:54;7.20;;;3.40;;
68126;SDS011;54931;52.098;21.006;2022-08-25T13:30:28;8.70;;;3.30;;
68126;SDS011;54931;52.098;21.006;2022-08-25T13:32:57;6.00;;;2.90;;
68126;SDS011;54931;52.098;21.006;2022-08-25T13:35:28;7.10;;;3.00;;
68126;SDS011;54931;52.098;21.006;2022-08-25T13:38:17;8.10;;;3.00;;
68126;SDS011;54931;52.098;21.006;2022-08-25T13:40:45;6.40;;;2.60;;
68126;SDS011;54931;52.098;21.006;2022-08-25T13:43:13;8.90;;;3.10;;
68126;SDS011;54931;52.098;21.006;2022-08-25T13:45:44;8.00;;;3.10;;
68126;SDS011;54931;52.098;21.006;2022-08-25T13:48:31;12.00;;;3.30;;
68126;SDS011;54931;52.098;21.006;2022-08-25T13:51:17;9.60;;;3.20;;
68126;SDS011;54931;52.098;21.006;2022-08-25T13:56:40;10.00;;;2.80;;
68126;SDS011;54931;52.098;21.006;2022-08-25T13:59:32;8.00;;;2.90;;
68126;SDS011;54931;52.098;21.006;2022-08-25T14:02:04;6.60;;;2.90;;
68126;SDS011;54931;52.098;21.006;2022-08-25T14:10:09;8.80;;;2.90;;
68126;SDS011;54931;52.098;21.006;2022-08-25T14:13:14;4.20;;;2.90;;
68126;SDS011;54931;52.098;21.006;2022-08-25T14:19:00;8.20;;;2.90;;
68126;SDS011;54931;52.098;21.006;2022-08-25T14:21:31;6.90;;;3.20;;
68126;SDS011;54931;52.098;21.006;2022-08-25T14:23:59;7.70;;;3.20;;
68126;SDS011;54931;52.098;21.006;2022-08-25T14:26:26;6.30;;;3.20;;
68126;SDS011;54931;52.098;21.006;2022-08-25T14:28:54;7.50;;;2.90;;
68126;SDS011;54931;52.098;21.006;2022-08-25T14:31:42;6.20;;;3.10;;
68126;SDS011;54931;52.098;21.006;2022-08-25T14:34:17;5.80;;;2.70;;
68126;SDS011;54931;52.098;21.006;2022-08-25T14:36:48;12.30;;;3.10;;
68126;SDS011;54931;52.098;21.006;2022-08-25T14:39:16;12.50;;;3.30;;
68126;SDS011;54931;52.098;21.006;2022-08-25T14:41:44;7.40;;;2.50;;
68126;SDS011;54931;52.098;21.006;2022-08-25T14:44:12;10.50;;;3.20;;
68126;SDS011;54931;52.098;21.006;2022-08-25T14:46:43;11.60;;;3.10;;
68126;SDS011;54931;52.098;21.006;2022-08-25T14:49:20;5.70;;;3.00;;
68126;SDS011;54931;52.098;21.006;2022-08-25T14:51:51;7.40;;;3.00;;
68126;SDS011;54931;52.098;21.006;2022-08-25T14:54:21;5.80;;;2.90;;
68126;SDS011;54931;52.098;21.006;2022-08-25T14:56:52;10.70;;;2.80;;
68126;SDS011;54931;52.098;21.006;2022-08-25T14:59:21;9.80;;;2.50;;
68126;SDS011;54931;52.098;21.006;2022-08-25T15:01:49;5.60;;;2.60;;
68126;SDS011;54931;52.098;21.006;2022-08-25T15:04:21;6.20;;;2.50;;
68126;SDS011;54931;52.098;21.006;2022-08-25T15:06:59;8.90;;;3.00;;
68126;SDS011;54931;52.098;21.006;2022-08-25T15:10:01;6.80;;;2.80;;
68126;SDS011;54931;52.098;21.006;2022-08-25T15:12:29;7.60;;;2.70;;
68126;SDS011;54931;52.098;21.006;2022-08-25T15:14:57;7.60;;;2.90;;
68126;SDS011;54931;52.098;21.006;2022-08-25T15:17:24;6.80;;;2.70;;
68126;SDS011;54931;52.098;21.006;2022-08-25T15:19:51;7.30;;;2.60;;
68126;SDS011;54931;52.098;21.006;2022-08-25T15:22:18;10.00;;;2.90;;
68126;SDS011;54931;52.098;21.006;2022-08-25T15:24:46;7.00;;;2.90;;
68126;SDS011;54931;52.098;21.006;2022-08-25T15:27:13;10.50;;;2.70;;
68126;SDS011;54931;52.098;21.006;2022-08-25T15:29:41;10.10;;;2.80;;
68126;SDS011;54931;52.098;21.006;2022-08-25T15:32:08;6.40;;;2.80;;
68126;SDS011;54931;52.098;21.006;2022-08-25T15:34:36;5.90;;;2.70;;
68126;SDS011;54931;52.098;21.006;2022-08-25T15:37:12;8.20;;;2.70;;
68126;SDS011;54931;52.098;21.006;2022-08-25T15:39:42;8.40;;;2.80;;
68126;SDS011;54931;52.098;21.006;2022-08-25T15:42:11;7.50;;;2.30;;
68126;SDS011;54931;52.098;21.006;2022-08-25T15:44:40;8.30;;;2.40;;
68126;SDS011;54931;52.098;21.006;2022-08-25T15:47:08;7.00;;;2.60;;
68126;SDS011;54931;52.098;21.006;2022-08-25T15:49:36;8.70;;;2.60;;
68126;SDS011;54931;52.098;21.006;2022-08-25T15:52:03;8.90;;;2.70;;
68126;SDS011;54931;52.098;21.006;2022-08-25T15:54:31;6.50;;;2.60;;
68126;SDS011;54931;52.098;21.006;2022-08-25T15:56:59;10.60;;;3.00;;
68126;SDS011;54931;52.098;21.006;2022-08-25T15:59:27;13.10;;;2.70;;
68126;SDS011;54931;52.098;21.006;2022-08-25T16:01:55;11.80;;;2.60;;
68126;SDS011;54931;52.098;21.006;2022-08-25T16:04:24;5.30;;;2.30;;
68126;SDS011;54931;52.098;21.006;2022-08-25T16:06:53;16.80;;;2.80;;
68126;SDS011;54931;52.098;21.006;2022-08-25T16:09:21;6.40;;;2.40;;
68126;SDS011;54931;52.098;21.006;2022-08-25T16:11:50;8.10;;;2.60;;
68126;SDS011;54931;52.098;21.006;2022-08-25T16:14:17;15.60;;;2.70;;
68126;SDS011;54931;52.098;21.006;2022-08-25T16:16:45;8.40;;;2.40;;
68126;SDS011;54931;52.098;21.006;2022-08-25T16:19:12;7.80;;;2.40;;
68126;SDS011;54931;52.098;21.006;2022-08-25T16:21:41;11.90;;;2.50;;
68126;SDS011;54931;52.098;21.006;2022-08-25T16:24:09;9.40;;;2.90;;
68126;SDS011;54931;52.098;21.006;2022-08-25T16:26:37;8.20;;;2.70;;
68126;SDS011;54931;52.098;21.006;2022-08-25T16:29:08;9.80;;;2.50;;
68126;SDS011;54931;52.098;21.006;2022-08-25T16:31:37;10.00;;;2.60;;
68126;SDS011;54931;52.098;21.006;2022-08-25T16:34:05;4.80;;;2.30;;
68126;SDS011;54931;52.098;21.006;2022-08-25T16:36:32;7.30;;;2.60;;
68126;SDS011;54931;52.098;21.006;2022-08-25T16:38:59;8.30;;;2.70;;